Time;durP1;ratioP1;P1;durP2;ratioP2;P2;SDS_P1;SDS_P2;PMS_P1;PMS_P2;Temp;Humidity;BMP_temperature;BMP_pressure;BME280_temperature;BME280_humidity;BME280_pressure;Samples;Min_cycle;Max_cycle;Signal;HPM_P1;HPM_P2
2024/03/01 00:00:11;;;;;;;34.28;14.57;;;;;;;1.93;100.00;96267.25;5019687;28;20136;-63
2024/03/01 00:02:37;;;;;;;32.33;14.50;;;;;;;2.10;100.00;96266.63;5023640;28;20048;-65
2024/03/01 00:05:05;;;;;;;32.67;15.07;;;;;;;2.17;100.00;96266.53;5023620;28;20033;-65
2024/03/01 00:07:31;;;;;;;31.25;16.00;;;;;;;2.18;100.00;96260.19;5020527;28;20103;-65
2024/03/01 00:09:58;;;;;;;30.75;14.55;;;;;;;2.10;100.00;96263.16;5016359;28;20037;-65
2024/03/01 00:12:25;;;;;;;30.10;15.02;;;;;;;1.93;100.00;96264.59;5015567;28;20251;-64
2024/03/01 00:14:51;;;;;;;30.67;15.00;;;;;;;2.00;100.00;96269.03;5026605;28;20527;-64
2024/03/01 00:17:18;;;;;;;28.92;15.23;;;;;;;2.23;100.00;96267.50;5023461;28;20048;-64
2024/03/01 00:19:44;;;;;;;35.17;14.15;;;;;;;2.21;100.00;96262.38;5021010;28;20560;-65
2024/03/01 00:22:15;;;;;;;32.05;14.25;;;;;;;2.15;100.00;96256.09;5028857;28;20509;-63
2024/03/01 00:24:42;;;;;;;33.05;14.98;;;;;;;1.98;100.00;96261.25;5023764;28;20095;-65
2024/03/01 00:27:08;;;;;;;30.15;14.93;;;;;;;1.94;100.00;96266.22;5024253;28;20099;-65
2024/03/01 00:29:37;;;;;;;34.17;15.60;;;;;;;2.14;100.00;96269.69;5022033;28;20103;-64
2024/03/01 00:32:04;;;;;;;31.50;15.55;;;;;;;2.07;100.00;96270.56;5025657;28;20052;-64
2024/03/01 00:34:31;;;;;;;33.47;14.35;;;;;;;2.17;100.00;96280.72;5021310;28;20041;-64
2024/03/01 00:36:59;;;;;;;31.30;14.98;;;;;;;2.33;100.00;96283.81;5014471;28;20046;-64
2024/03/01 00:39:26;;;;;;;25.25;14.68;;;;;;;2.36;100.00;96285.22;5018874;28;20061;-63
2024/03/01 00:41:52;;;;;;;31.77;15.40;;;;;;;2.36;100.00;96296.72;5013798;28;20420;-65
2024/03/01 00:44:19;;;;;;;33.15;15.57;;;;;;;2.46;100.00;96290.81;5017738;28;20046;-65
2024/03/01 00:46:45;;;;;;;32.10;15.38;;;;;;;2.50;100.00;96286.66;5017849;28;20103;-63
2024/03/01 00:49:13;;;;;;;32.08;15.63;;;;;;;2.54;100.00;96295.06;5020484;28;20427;-65
2024/03/01 00:51:39;;;;;;;33.17;14.48;;;;;;;2.63;100.00;96293.69;5018076;28;20550;-64
2024/03/01 00:54:06;;;;;;;37.03;15.77;;;;;;;2.68;100.00;96283.13;5023034;28;20116;-65
2024/03/01 00:56:32;;;;;;;35.35;15.65;;;;;;;2.66;100.00;96284.41;5018017;28;20053;-66
2024/03/01 00:58:59;;;;;;;30.83;14.68;;;;;;;2.70;100.00;96285.56;5016416;28;20124;-65
2024/03/01 01:01:25;;;;;;;33.20;15.07;;;;;;;2.78;100.00;96281.75;5020262;28;20121;-64
2024/03/01 01:03:52;;;;;;;32.63;15.52;;;;;;;2.87;100.00;96277.69;5014428;28;20405;-64
2024/03/01 01:06:18;;;;;;;31.65;15.10;;;;;;;2.91;100.00;96273.50;5025687;28;20440;-66
2024/03/01 01:08:45;;;;;;;28.35;14.77;;;;;;;2.76;100.00;96271.28;5024557;28;20116;-66
2024/03/01 01:11:12;;;;;;;28.35;15.15;;;;;;;2.79;100.00;96264.66;5023552;28;20033;-63
2024/03/01 01:13:38;;;;;;;26.67;14.57;;;;;;;2.86;100.00;96262.69;5022387;28;20547;-64
2024/03/01 01:16:05;;;;;;;28.05;13.80;;;;;;;2.89;100.00;96264.94;5021660;28;20041;-65
2024/03/01 01:18:31;;;;;;;26.83;13.48;;;;;;;2.89;100.00;96256.91;5023569;28;20686;-65
2024/03/01 01:20:58;;;;;;;29.77;13.93;;;;;;;2.83;100.00;96260.47;5024745;28;20678;-63
2024/03/01 01:23:25;;;;;;;26.63;14.90;;;;;;;2.67;100.00;96265.47;5023962;28;20037;-65
2024/03/01 01:25:51;;;;;;;30.77;15.63;;;;;;;2.78;100.00;96269.22;5028708;28;20047;-65
2024/03/01 01:28:18;;;;;;;31.00;14.98;;;;;;;2.83;100.00;96280.03;5029112;28;20117;-63
2024/03/01 01:30:45;;;;;;;29.50;15.38;;;;;;;2.99;100.00;96280.41;5020745;28;20046;-64
2024/03/01 01:33:12;;;;;;;35.15;16.30;;;;;;;3.09;100.00;96269.13;5020823;28;20072;-64
2024/03/01 01:35:40;;;;;;;31.73;15.43;;;;;;;3.16;100.00;96267.16;5023087;28;20053;-64
2024/03/01 01:38:06;;;;;;;30.38;14.13;;;;;;;3.22;100.00;96263.56;5025296;28;20041;-63
2024/03/01 01:40:33;;;;;;;30.30;15.25;;;;;;;3.35;100.00;96262.50;5027629;28;20120;-64
2024/03/01 01:43:03;;;;;;;29.52;15.25;;;;;;;3.39;100.00;96257.50;5024816;28;20045;-64
2024/03/01 01:45:32;;;;;;;32.40;13.60;;;;;;;3.34;100.00;96260.88;5031194;28;20125;-64
2024/03/01 01:47:59;;;;;;;32.85;15.18;;;;;;;3.29;100.00;96252.75;5025787;28;20117;-63
2024/03/01 01:50:26;;;;;;;35.42;14.90;;;;;;;3.18;100.00;96258.91;5023336;28;20045;-64
2024/03/01 01:52:55;;;;;;;28.92;13.85;;;;;;;3.20;100.00;96260.28;5015126;28;20539;-64
2024/03/01 01:55:22;;;;;;;29.08;13.73;;;;;;;3.20;100.00;96264.81;5020631;28;20116;-64
2024/03/01 01:57:51;;;;;;;29.45;15.30;;;;;;;3.18;100.00;96257.06;5041685;28;20083;-65
2024/03/01 02:00:17;;;;;;;33.25;14.80;;;;;;;3.22;100.00;96252.03;5024907;28;20041;-66
2024/03/01 02:02:45;;;;;;;30.08;15.05;;;;;;;3.27;100.00;96259.38;5019255;28;20389;-66
2024/03/01 02:05:12;;;;;;;27.08;14.63;;;;;;;3.30;100.00;96253.53;5027621;28;20045;-66
2024/03/01 02:07:39;;;;;;;26.70;14.05;;;;;;;3.36;100.00;96260.66;5022800;28;20124;-64
2024/03/01 02:10:19;;;;;;;29.23;14.82;;;;;;;3.42;100.00;96240.97;5024198;28;20095;-64
2024/03/01 02:12:55;;;;;;;29.13;15.40;;;;;;;3.46;100.00;96244.81;5025995;28;20107;-65
2024/03/01 02:15:26;;;;;;;31.85;14.80;;;;;;;3.48;100.00;96232.03;5018057;28;20037;-65
2024/03/01 02:17:54;;;;;;;30.40;14.95;;;;;;;3.48;100.00;96234.72;5028825;28;20525;-64
2024/03/01 02:20:22;;;;;;;31.63;14.70;;;;;;;3.44;100.00;96225.53;5013506;28;20535;-65
2024/03/01 02:22:52;;;;;;;27.05;14.07;;;;;;;3.41;100.00;96220.63;5023130;28;20149;-65
2024/03/01 02:25:19;;;;;;;30.55;14.35;;;;;;;3.51;100.00;96207.44;5020130;28;20045;-64
2024/03/01 02:27:47;;;;;;;28.90;14.25;;;;;;;3.44;100.00;96209.47;5019699;28;20137;-65
2024/03/01 02:30:15;;;;;;;26.77;15.13;;;;;;;3.42;100.00;96205.41;5019249;28;20069;-65
2024/03/01 02:32:41;;;;;;;28.33;15.07;;;;;;;3.33;100.00;96204.94;5029719;28;20126;-64
2024/03/01 02:35:08;;;;;;;30.40;15.23;;;;;;;3.16;100.00;96205.63;5029170;28;20128;-65
2024/03/01 02:37:35;;;;;;;27.48;15.65;;;;;;;3.19;100.00;96205.19;5025962;28;20056;-65
2024/03/01 02:40:03;;;;;;;32.80;16.10;;;;;;;3.14;100.00;96213.09;5008207;28;20044;-63
2024/03/01 02:42:33;;;;;;;32.45;16.88;;;;;;;3.25;100.00;96216.81;5022145;28;20037;-64
2024/03/01 02:45:03;;;;;;;30.15;15.27;;;;;;;3.42;100.00;96216.91;5024608;28;20033;-63
2024/03/01 02:47:30;;;;;;;32.90;16.88;;;;;;;3.41;100.00;96212.59;5023161;28;20107;-64
2024/03/01 02:49:56;;;;;;;30.80;15.18;;;;;;;3.38;100.00;96211.22;5026627;28;20076;-63
2024/03/01 02:52:23;;;;;;;35.47;15.68;;;;;;;3.35;100.00;96214.34;5024521;28;20041;-63
2024/03/01 02:54:49;;;;;;;35.15;17.05;;;;;;;3.30;100.00;96205.38;5020737;28;20107;-65
2024/03/01 02:57:16;;;;;;;29.83;15.50;;;;;;;3.30;100.00;96208.06;5019813;28;21741;-65
2024/03/01 02:59:43;;;;;;;33.60;16.23;;;;;;;3.32;100.00;96209.44;5019644;28;20049;-65
2024/03/01 03:02:09;;;;;;;31.80;15.57;;;;;;;3.40;100.00;96210.16;5014012;28;20037;-63
2024/03/01 03:04:36;;;;;;;34.38;15.20;;;;;;;3.44;100.00;96211.31;5019523;28;20560;-63
2024/03/01 03:07:03;;;;;;;36.20;17.58;;;;;;;3.51;100.00;96202.09;5021070;28;20045;-63
2024/03/01 03:09:43;;;;;;;34.30;16.10;;;;;;;3.56;100.00;96201.41;5017644;28;20630;-63
2024/03/01 03:12:13;;;;;;;30.85;15.23;;;;;;;3.55;100.00;96191.75;5021515;28;20042;-63
2024/03/01 03:14:39;;;;;;;28.10;13.40;;;;;;;3.55;100.00;96198.97;5021687;28;20041;-65
2024/03/01 03:17:06;;;;;;;28.27;14.43;;;;;;;3.46;100.00;96204.69;5023841;28;20045;-64
2024/03/01 03:19:34;;;;;;;31.90;16.35;;;;;;;3.40;100.00;96207.47;5019102;28;20092;-64
2024/03/01 03:22:06;;;;;;;30.60;15.07;;;;;;;3.42;100.00;96200.84;5022058;28;20046;-64
2024/03/01 03:24:32;;;;;;;;;;;;;;;3.44;100.00;96197.94;5022461;28;20099;-65
2024/03/01 03:26:59;;;;;;;30.02;14.55;;;;;;;3.48;100.00;96201.78;5023785;28;19982;-65
2024/03/01 03:29:25;;;;;;;33.78;15.05;;;;;;;3.45;100.00;96205.72;5025676;28;20457;-65
2024/03/01 03:31:52;;;;;;;31.30;15.43;;;;;;;3.40;100.00;96199.44;5016340;28;20042;-64
2024/03/01 03:34:18;;;;;;;32.20;14.57;;;;;;;3.29;100.00;96206.44;5022094;28;20034;-65
2024/03/01 03:36:45;;;;;;;26.83;15.38;;;;;;;3.09;100.00;96221.81;5025849;28;20056;-64
2024/03/01 03:39:11;;;;;;;32.47;16.40;;;;;;;3.01;100.00;96219.47;5016641;28;20041;-66
2024/03/01 03:41:38;;;;;;;30.35;14.95;;;;;;;3.12;100.00;96228.53;5017060;28;20049;-64
2024/03/01 03:44:04;;;;;;;35.60;15.05;;;;;;;3.02;100.00;96231.78;5025073;28;20033;-63
2024/03/01 03:46:31;;;;;;;30.77;14.40;;;;;;;2.98;100.00;96230.63;5022614;28;20050;-64
2024/03/01 03:48:58;;;;;;;30.52;14.93;;;;;;;2.95;100.00;96234.56;5023176;28;20064;-63
2024/03/01 03:51:26;;;;;;;36.58;16.42;;;;;;;3.16;100.00;96226.22;5023492;28;20114;-65
2024/03/01 03:53:54;;;;;;;28.05;15.75;;;;;;;3.19;100.00;96223.91;5017308;28;20038;-63
2024/03/01 03:56:21;;;;;;;32.75;15.00;;;;;;;3.19;100.00;96239.13;5018702;28;20040;-65
2024/03/01 03:58:48;;;;;;;30.98;14.88;;;;;;;3.31;100.00;96252.53;5020152;28;20041;-64
2024/03/01 04:01:15;;;;;;;37.17;17.00;;;;;;;3.35;100.00;96259.84;5020890;28;20045;-64
2024/03/01 04:03:45;;;;;;;39.28;16.15;;;;;;;3.45;100.00;96259.25;5022564;28;20154;-65
2024/03/01 04:06:12;;;;;;;33.03;16.60;;;;;;;3.55;100.00;96258.66;5019075;28;20040;-64
2024/03/01 04:08:39;;;;;;;35.22;17.02;;;;;;;3.60;100.00;96261.44;5019187;28;20128;-64
2024/03/01 04:11:06;;;;;;;32.03;14.95;;;;;;;3.58;100.00;96262.75;5019757;28;20053;-65
2024/03/01 04:13:33;;;;;;;28.88;15.63;;;;;;;3.64;100.00;96264.47;5017578;28;20448;-65
2024/03/01 04:16:00;;;;;;;26.95;13.80;;;;;;;3.63;100.00;96257.50;5020629;28;20041;-65
2024/03/01 04:18:27;;;;;;;32.17;16.77;;;;;;;3.70;100.00;96258.19;5028840;28;20042;-64
2024/03/01 04:20:58;;;;;;;34.92;17.20;;;;;;;3.73;100.00;96249.66;5021995;28;20045;-65
2024/03/01 04:23:25;;;;;;;35.63;18.10;;;;;;;3.77;100.00;96253.50;5014310;28;20497;-64
2024/03/01 04:25:53;;;;;;;34.97;16.88;;;;;;;3.83;100.00;96256.31;5021735;28;20042;-65
2024/03/01 04:28:23;;;;;;;31.02;16.67;;;;;;;3.87;100.00;96258.25;5012626;28;20483;-64
2024/03/01 04:30:50;;;;;;;33.85;17.35;;;;;;;3.98;100.00;96267.31;5021039;28;20068;-63
2024/03/01 04:33:16;;;;;;;38.25;16.73;;;;;;;3.87;100.00;96263.63;5017375;28;20788;-65
2024/03/01 04:35:43;;;;;;;30.85;15.70;;;;;;;3.95;100.00;96269.66;5022587;28;20041;-64
2024/03/01 04:38:10;;;;;;;32.45;16.48;;;;;;;4.03;100.00;96280.81;5021637;28;20044;-63
2024/03/01 04:40:40;;;;;;;30.85;14.90;;;;;;;4.17;100.00;96277.88;5026424;28;20049;-63
2024/03/01 04:43:07;;;;;;;37.28;16.58;;;;;;;3.98;100.00;96272.66;5027275;28;20076;-64
2024/03/01 04:45:34;;;;;;;31.58;15.68;;;;;;;4.09;100.00;96280.94;5017600;28;20046;-63
2024/03/01 04:48:00;;;;;;;28.60;14.40;;;;;;;4.15;100.00;96270.06;5033755;28;20130;-63
2024/03/01 04:50:27;;;;;;;28.80;15.43;;;;;;;4.21;100.00;96270.16;5026451;28;20069;-65
2024/03/01 04:52:54;;;;;;;35.97;14.43;;;;;;;4.29;100.00;96264.44;5022025;28;20704;-64
2024/03/01 04:55:20;;;;;;;32.65;17.75;;;;;;;4.19;100.00;96259.69;5020071;28;20046;-64
2024/03/01 04:57:47;;;;;;;30.85;16.67;;;;;;;4.22;100.00;96259.22;5026110;28;20436;-63
2024/03/01 05:00:13;;;;;;;31.27;15.05;;;;;;;4.18;100.00;96260.75;5026486;28;20138;-64
2024/03/01 05:02:43;;;;;;;30.75;16.15;;;;;;;4.19;100.00;96256.19;5026552;28;20057;-64
2024/03/01 05:05:11;;;;;;;30.73;15.27;;;;;;;4.25;100.00;96264.09;5030313;28;20056;-64
2024/03/01 05:07:40;;;;;;;36.40;17.63;;;;;;;4.12;100.00;96272.41;5022010;28;20045;-64
2024/03/01 05:10:11;;;;;;;37.47;17.30;;;;;;;4.08;100.00;96273.91;5032307;28;20037;-64
2024/03/01 05:12:38;;;;;;;32.33;16.05;;;;;;;4.08;100.00;96274.75;5022390;28;20041;-64
2024/03/01 05:15:07;;;;;;;34.22;17.30;;;;;;;4.07;100.00;96280.34;5021472;28;20049;-63
2024/03/01 05:17:35;;;;;;;39.22;18.70;;;;;;;3.94;100.00;96279.53;5021804;28;20041;-64
2024/03/01 05:20:10;;;;;;;36.63;18.30;;;;;;;3.92;100.00;96281.66;5031843;28;20052;-63
2024/03/01 05:22:38;;;;;;;38.33;18.00;;;;;;;3.96;100.00;96269.44;5024419;28;20299;-64
2024/03/01 05:25:14;;;;;;;35.47;17.60;;;;;;;3.99;100.00;96285.03;5017518;28;20467;-64
2024/03/01 05:27:45;;;;;;;35.15;16.20;;;;;;;4.11;100.00;96284.16;5029502;28;20059;-64
2024/03/01 05:30:16;;;;;;;33.17;16.90;;;;;;;4.12;100.00;96283.94;5020763;28;20555;-65
2024/03/01 05:33:02;;;;;;;36.63;17.50;;;;;;;4.14;100.00;96281.03;5026087;28;20045;-64
2024/03/01 05:35:29;;;;;;;34.85;17.15;;;;;;;4.13;100.00;96285.56;5023443;28;20656;-65
2024/03/01 05:37:58;;;;;;;33.60;17.38;;;;;;;4.15;100.00;96293.38;5023627;28;20044;-64
2024/03/01 05:40:24;;;;;;;35.88;16.77;;;;;;;4.13;100.00;96293.59;5024781;28;20117;-65
2024/03/01 05:42:51;;;;;;;34.78;16.50;;;;;;;4.12;100.00;96297.34;5029034;28;20524;-63
2024/03/01 05:45:19;;;;;;;32.88;17.00;;;;;;;4.08;100.00;96298.03;5028560;28;20510;-65
2024/03/01 05:47:46;;;;;;;36.75;17.63;;;;;;;4.06;100.00;96303.66;5027193;28;20049;-64
2024/03/01 05:50:13;;;;;;;37.22;17.50;;;;;;;4.06;100.00;96302.81;5034276;28;20076;-65
2024/03/01 05:52:42;;;;;;;34.92;17.80;;;;;;;4.08;100.00;96308.75;5023158;28;20064;-64
2024/03/01 05:55:15;;;;;;;35.15;16.20;;;;;;;4.12;100.00;96304.53;5018859;28;20504;-64
2024/03/01 05:57:42;;;;;;;30.48;17.05;;;;;;;4.18;100.00;96310.81;5027110;28;20456;-64
2024/03/01 06:00:17;;;;;;;32.28;16.48;;;;;;;4.22;100.00;96309.31;5034013;28;20040;-64
2024/03/01 06:02:48;;;;;;;32.70;16.15;;;;;;;4.14;100.00;96318.53;5025707;28;20655;-66
2024/03/01 06:05:15;;;;;;;34.17;17.38;;;;;;;4.16;100.00;96314.56;5022061;28;20053;-65
2024/03/01 06:07:42;;;;;;;34.88;17.50;;;;;;;4.36;100.00;96309.84;5017457;28;20113;-64
2024/03/01 06:10:10;;;;;;;35.35;16.15;;;;;;;4.44;100.00;96312.16;5027408;28;20033;-65
2024/03/01 06:12:37;;;;;;;36.17;16.67;;;;;;;4.54;100.00;96312.34;5023279;28;20632;-65
2024/03/01 06:15:04;;;;;;;33.88;16.95;;;;;;;4.49;100.00;96306.88;5016550;28;20041;-63
2024/03/01 06:17:32;;;;;;;33.67;16.90;;;;;;;4.53;100.00;96309.88;5024485;28;20034;-63
2024/03/01 06:19:59;;;;;;;32.15;16.58;;;;;;;4.64;100.00;96319.75;5035664;28;20047;-65
2024/03/01 06:22:25;;;;;;;35.35;17.63;;;;;;;4.69;100.00;96319.84;5024262;28;20140;-65
2024/03/01 06:24:52;;;;;;;33.38;16.27;;;;;;;4.76;100.00;96319.69;5023310;28;20049;-65
2024/03/01 06:27:18;;;;;;;29.80;15.63;;;;;;;4.95;100.00;96324.88;5021688;28;20562;-64
2024/03/01 06:29:45;;;;;;;38.80;16.88;;;;;;;4.95;100.00;96319.50;5021851;28;20401;-65
2024/03/01 06:32:11;;;;;;;31.65;17.10;;;;;;;5.03;100.00;96319.13;5017645;28;20056;-65
2024/03/01 06:34:38;;;;;;;30.35;15.82;;;;;;;4.97;100.00;96332.69;5024912;28;20049;-65
2024/03/01 06:37:05;;;;;;;29.55;16.80;;;;;;;4.99;100.00;96331.38;5024934;28;20073;-64
2024/03/01 06:39:31;;;;;;;34.38;16.95;;;;;;;5.12;100.00;96332.13;5018164;28;20052;-64
2024/03/01 06:41:58;;;;;;;32.58;16.58;;;;;;;5.13;100.00;96336.44;5019879;28;20034;-65
2024/03/01 06:44:25;;;;;;;31.02;15.98;;;;;;;5.23;100.00;96335.81;5022537;28;20056;-65
2024/03/01 06:46:52;;;;;;;30.58;16.98;;;;;;;5.25;100.00;96341.72;5022012;28;20045;-64
2024/03/01 06:49:19;;;;;;;36.70;16.05;;;;;;;5.25;100.00;96339.88;5024337;28;20052;-64
2024/03/01 06:51:46;;;;;;;33.10;15.60;;;;;;;5.19;100.00;96335.44;5026367;28;20042;-64
2024/03/01 06:54:12;;;;;;;34.17;17.00;;;;;;;5.28;100.00;96330.50;5019440;28;20049;-64
2024/03/01 06:56:40;;;;;;;35.35;17.65;;;;;;;5.31;100.00;96332.72;5021020;28;20815;-64
2024/03/01 06:59:07;;;;;;;35.08;16.83;;;;;;;5.31;100.00;96330.81;5023323;28;20049;-64
2024/03/01 07:01:35;;;;;;;34.60;17.13;;;;;;;5.30;100.00;96331.91;5021875;28;20049;-63
2024/03/01 07:04:02;;;;;;;32.45;15.75;;;;;;;5.32;100.00;96327.09;5018140;28;20051;-64
2024/03/01 07:06:30;;;;;;;30.08;14.65;;;;;;;5.42;100.00;96331.81;5028826;28;20045;-63
2024/03/01 07:08:57;;;;;;;33.85;16.67;;;;;;;5.43;100.00;96324.56;5022429;28;20075;-64
2024/03/01 07:11:25;;;;;;;33.97;15.93;;;;;;;5.42;100.00;96331.00;5018579;28;20128;-63
2024/03/01 07:13:52;;;;;;;33.10;16.15;;;;;;;5.44;100.00;96334.25;5025484;28;20045;-64
2024/03/01 07:16:19;;;;;;;32.78;16.33;;;;;;;5.49;100.00;96334.31;5024966;28;20634;-64
2024/03/01 07:18:46;;;;;;;31.33;13.93;;;;;;;5.52;100.00;96330.31;5028329;28;20037;-65
2024/03/01 07:21:12;;;;;;;33.30;15.45;;;;;;;5.40;100.00;96331.25;5028364;28;20042;-63
2024/03/01 07:23:39;;;;;;;29.23;15.15;;;;;;;5.32;100.00;96329.78;5020493;28;20148;-64
2024/03/01 07:26:06;;;;;;;29.35;15.07;;;;;;;5.45;100.00;96330.50;5022147;28;20046;-64
2024/03/01 07:28:33;;;;;;;28.52;15.45;;;;;;;5.41;100.00;96327.50;5021823;28;20132;-64
2024/03/01 07:30:59;;;;;;;28.00;14.95;;;;;;;5.54;100.00;96334.44;5020044;28;20037;-63
2024/03/01 07:33:26;;;;;;;32.00;15.93;;;;;;;5.68;100.00;96329.50;5012128;28;20048;-64
2024/03/01 07:35:53;;;;;;;27.67;14.95;;;;;;;5.82;100.00;96329.97;5015115;28;20041;-63
2024/03/01 07:38:19;;;;;;;28.30;15.05;;;;;;;5.86;100.00;96327.59;5019583;28;20051;-65
2024/03/01 07:40:46;;;;;;;29.48;15.30;;;;;;;5.90;100.00;96330.63;5023208;28;20052;-64
2024/03/01 07:43:13;;;;;;;31.15;15.13;;;;;;;5.98;100.00;96327.50;5024299;28;20088;-64
2024/03/01 07:45:39;;;;;;;32.33;16.35;;;;;;;6.02;100.00;96327.81;5012892;28;20103;-64
2024/03/01 07:48:07;;;;;;;33.55;15.55;;;;;;;6.01;100.00;96320.84;5018649;28;20453;-62
2024/03/01 07:50:34;;;;;;;29.50;14.45;;;;;;;5.94;100.00;96312.94;5020484;28;20049;-64
2024/03/01 07:53:01;;;;;;;31.38;15.82;;;;;;;5.96;100.00;96314.31;5022828;28;20045;-63
2024/03/01 07:55:28;;;;;;;29.02;15.82;;;;;;;5.97;100.00;96323.22;5021637;28;20099;-55
2024/03/01 07:57:55;;;;;;;30.95;14.48;;;;;;;6.10;100.00;96322.06;5021125;28;20049;-60
2024/03/01 08:00:21;;;;;;;29.17;14.02;;;;;;;6.16;100.00;96322.94;5015620;28;20061;-58
2024/03/01 08:02:57;;;;;;;28.50;14.13;;;;;;;6.27;100.00;96330.06;5015496;28;20091;-59
2024/03/01 08:05:24;;;;;;;30.13;14.63;;;;;;;6.53;100.00;96322.31;5023296;28;20046;-57
2024/03/01 08:07:51;;;;;;;30.48;15.10;;;;;;;6.57;100.00;96328.00;5026020;28;20777;-58
2024/03/01 08:10:18;;;;;;;26.00;14.52;;;;;;;6.44;100.00;96321.94;5021854;28;20142;-58
2024/03/01 08:12:44;;;;;;;28.65;15.05;;;;;;;6.43;100.00;96324.88;5020118;28;20103;-65
2024/03/01 08:15:22;;;;;;;25.70;13.80;;;;;;;6.53;100.00;96319.63;5021355;28;20134;-65
2024/03/01 08:17:49;;;;;;;28.60;14.43;;;;;;;6.43;100.00;96317.63;5024285;28;20069;-65
2024/03/01 08:21:03;;;;;;;26.85;13.65;;;;;;;6.52;100.00;96325.25;5019647;28;20041;-65
2024/03/01 08:23:41;;;;;;;30.08;15.25;;;;;;;6.64;100.00;96325.91;5019397;28;20480;-65
2024/03/01 08:26:24;;;;;;;26.95;12.70;;;;;;;6.78;100.00;96336.28;5020880;28;20051;-65
2024/03/01 08:28:52;;;;;;;25.55;13.30;;;;;;;6.74;100.00;96338.66;5017181;28;20041;-64
2024/03/01 08:31:28;;;;;;;23.48;13.40;;;;;;;6.80;100.00;96339.53;5017039;28;20052;-64
2024/03/01 08:34:07;;;;;;;30.00;13.82;;;;;;;6.90;100.00;96332.38;5020476;28;20130;-63
2024/03/01 08:36:34;;;;;;;26.77;13.75;;;;;;;7.02;100.00;96337.63;5019792;28;20042;-64
2024/03/01 08:39:16;;;;;;;23.13;12.55;;;;;;;7.05;100.00;96336.28;5018303;28;20041;-64
2024/03/01 08:41:46;;;;;;;25.60;13.05;;;;;;;7.25;100.00;96341.03;5025660;28;20056;-64
2024/03/01 08:44:34;;;;;;;26.05;12.70;;;;;;;7.30;100.00;96342.97;5018920;28;20359;-64
2024/03/01 08:47:01;;;;;;;22.63;12.85;;;;;;;7.42;100.00;96335.50;5018935;28;20037;-64
2024/03/01 08:49:51;;;;;;;24.85;12.95;;;;;;;7.59;100.00;96333.78;5026348;28;20049;-64
2024/03/01 08:52:39;;;;;;;26.08;13.18;;;;;;;7.62;100.00;96336.75;5018062;28;20501;-63
2024/03/01 08:55:09;;;;;;;24.02;11.88;;;;;;;7.75;100.00;96340.91;5020620;28;20041;-64
2024/03/01 08:57:37;;;;;;;22.35;10.85;;;;;;;7.79;100.00;96342.00;5015921;28;20721;-63
2024/03/01 09:00:26;;;;;;;22.25;11.77;;;;;;;7.94;100.00;96352.06;5015186;28;20092;-63
2024/03/01 09:02:54;;;;;;;22.52;11.57;;;;;;;8.03;100.00;96354.25;5025469;28;20526;-64
2024/03/01 09:05:21;;;;;;;21.20;10.65;;;;;;;7.95;100.00;96358.25;5022143;28;20389;-64
2024/03/01 09:07:49;;;;;;;21.40;10.50;;;;;;;8.03;100.00;96355.06;5017423;28;20614;-63
2024/03/01 09:10:20;;;;;;;21.50;10.88;;;;;;;8.26;100.00;96350.31;5022189;28;20123;-64
2024/03/01 09:12:48;;;;;;;20.48;10.77;;;;;;;8.15;100.00;96344.06;5022800;28;20092;-64
2024/03/01 09:15:19;;;;;;;18.70;10.80;;;;;;;8.19;100.00;96355.16;5022517;28;20045;-64
2024/03/01 09:17:46;;;;;;;20.00;10.98;;;;;;;8.33;100.00;96350.09;5023154;28;20829;-64
2024/03/01 09:20:35;;;;;;;18.65;10.88;;;;;;;8.45;100.00;96349.88;5023321;28;20052;-64
2024/03/01 09:23:07;;;;;;;21.67;10.13;;;;;;;8.60;100.00;96343.78;5024299;28;20044;-63
2024/03/01 09:25:48;;;;;;;16.65;8.98;;;;;;;8.85;100.00;96353.03;5023106;28;20053;-63
2024/03/01 09:28:16;;;;;;;17.67;9.57;;;;;;;8.87;100.00;96345.47;5026942;28;20040;-63
2024/03/01 09:30:50;;;;;;;18.35;9.88;;;;;;;9.05;100.00;96348.72;5026373;28;20048;-64
2024/03/01 09:33:19;;;;;;;20.20;10.80;;;;;;;8.94;100.00;96348.72;5026407;28;20120;-64
2024/03/01 09:35:50;;;;;;;17.50;10.13;;;;;;;8.94;100.00;96350.59;5029452;28;20140;-63
2024/03/01 09:38:18;;;;;;;16.52;8.98;;;;;;;8.85;100.00;96356.53;5025960;28;20052;-65
2024/03/01 09:40:51;;;;;;;19.42;9.65;;;;;;;8.73;100.00;96361.34;5024859;28;20041;-63
2024/03/01 09:43:35;;;;;;;17.00;9.43;;;;;;;8.55;100.00;96360.75;5026704;28;20044;-65
2024/03/01 09:46:06;;;;;;;17.58;9.00;;;;;;;8.51;100.00;96359.63;5025129;28;20535;-64
2024/03/01 09:48:50;;;;;;;17.23;8.48;;;;;;;8.52;100.00;96363.94;5015646;28;20092;-65
2024/03/01 09:51:22;;;;;;;15.88;9.68;;;;;;;8.47;100.00;96366.59;5026946;28;20524;-64
2024/03/01 09:54:06;;;;;;;17.60;9.40;;;;;;;8.41;100.00;96373.06;5028560;28;20050;-65
2024/03/01 09:57:03;;;;;;;18.23;9.38;;;;;;;8.48;100.00;96356.63;5029149;28;20057;-65
2024/03/01 09:59:46;;;;;;;16.27;8.80;;;;;;;8.62;100.00;96354.31;5021107;28;20033;-63
2024/03/01 10:02:26;;;;;;;17.13;9.23;;;;;;;8.58;100.00;96362.09;5017124;28;20053;-64
2024/03/01 10:04:58;;;;;;;18.83;10.13;;;;;;;8.49;100.00;96347.47;5019910;28;20040;-64
2024/03/01 10:07:31;;;;;;;19.55;9.40;;;;;;;8.63;100.00;96354.03;5026424;28;20045;-64
2024/03/01 10:10:14;;;;;;;16.23;8.65;;;;;;;8.71;100.00;96358.91;5025799;28;20045;-64
2024/03/01 10:12:50;;;;;;;16.30;9.15;;;;;;;8.59;100.00;96355.66;5020466;28;20107;-64
2024/03/01 10:15:40;;;;;;;14.63;8.90;;;;;;;8.75;100.00;96353.81;5026124;28;20068;-65
2024/03/01 10:18:13;;;;;;;14.80;7.30;;;;;;;8.92;100.00;96353.56;5021021;28;20042;-64
2024/03/01 10:20:55;;;;;;;13.38;7.30;;;;;;;8.92;100.00;96355.47;5022225;28;20041;-63
2024/03/01 10:23:45;;;;;;;13.07;6.78;;;;;;;9.24;100.00;96357.13;5026935;28;20056;-63
2024/03/01 10:26:26;;;;;;;11.30;6.03;;;;;;;9.21;100.00;96355.78;5022712;28;20141;-65
2024/03/01 10:29:28;;;;;;;11.90;5.63;;;;;;;9.11;100.00;96353.09;5026861;28;20094;-65
2024/03/01 10:32:15;;;;;;;10.45;5.85;;;;;;;9.31;100.00;96354.16;5028796;28;20057;-64
2024/03/01 10:35:09;;;;;;;10.82;6.03;;;;;;;9.68;100.00;96358.50;5020173;28;20116;-64
2024/03/01 10:37:58;;;;;;;11.05;6.30;;;;;;;9.83;100.00;96352.28;5025917;28;20128;-64
2024/03/01 10:40:26;;;;;;;10.18;5.55;;;;;;;9.85;100.00;96369.03;5023645;28;20049;-65
2024/03/01 10:43:11;;;;;;;12.77;5.50;;;;;;;9.91;100.00;96364.44;5027608;28;20047;-64
2024/03/01 10:45:56;;;;;;;9.77;5.47;;;;;;;9.98;100.00;96358.75;5021924;28;20152;-64
2024/03/01 10:48:24;;;;;;;10.43;5.28;;;;;;;9.99;100.00;96355.75;5025509;28;20045;-64
2024/03/01 10:50:58;;;;;;;8.68;5.07;;;;;;;10.19;100.00;96361.41;5025331;28;20503;-64
2024/03/01 10:53:31;;;;;;;9.60;4.90;;;;;;;10.51;100.00;96355.66;5016356;28;20056;-65
2024/03/01 10:56:03;;;;;;;9.70;4.75;;;;;;;10.29;100.00;96353.28;5025588;28;20067;-64
2024/03/01 10:58:54;;;;;;;8.25;4.85;;;;;;;10.46;100.00;96361.09;5027207;28;20041;-64
2024/03/01 11:01:27;;;;;;;;;;;;;;;10.42;100.00;96354.56;5031510;28;20055;-65
2024/03/01 11:04:18;;;;;;;10.77;5.25;;;;;;;10.41;100.00;96358.38;5019021;28;19987;-64
2024/03/01 11:07:20;;;;;;;7.68;4.38;;;;;;;10.35;100.00;96360.28;5027347;28;20057;-64
2024/03/01 11:09:46;;;;;;;;;;;;;;;10.22;100.00;96356.28;5019681;28;20141;-64
2024/03/01 11:12:34;;;;;;;9.52;4.90;;;;;;;10.24;100.00;96354.09;5021577;28;19925;-66
2024/03/01 11:15:09;;;;;;;10.23;4.60;;;;;;;10.27;100.00;96352.72;5018897;28;20057;-65
2024/03/01 11:17:38;;;;;;;8.05;4.43;;;;;;;10.52;100.00;96353.75;5019890;28;20057;-66
2024/03/01 11:20:13;;;;;;;8.32;4.47;;;;;;;10.08;100.00;96347.09;5022048;28;20045;-65
2024/03/01 11:22:48;;;;;;;9.40;5.20;;;;;;;9.83;100.00;96343.34;5024108;28;20037;-65
2024/03/01 11:25:15;;;;;;;10.13;4.75;;;;;;;9.61;100.00;96342.56;5023906;28;20475;-66
2024/03/01 11:27:48;;;;;;;9.80;5.07;;;;;;;9.52;100.00;96338.78;5019002;28;20068;-66
2024/03/01 11:30:19;;;;;;;9.20;5.03;;;;;;;9.48;100.00;96337.72;5015363;28;20046;-65
2024/03/01 11:32:51;;;;;;;10.35;5.30;;;;;;;9.42;100.00;96333.38;5031397;28;20041;-66